Time;durP1;ratioP1;P1;durP2;ratioP2;P2;SDS_P1;SDS_P2;PMS_P1;PMS_P2;Temp;Humidity;BMP_temperature;BMP_pressure;BME280_temperature;BME280_humidity;BME280_pressure;Samples;Min_cycle;Max_cycle;Signal;HPM_P1;HPM_P2
2022/09/04 00:01:59;;;;;;;;;;;16.00;91.00;;;;;;4970378;28;19929;-83
2022/09/04 00:04:26;;;;;;;;;;;16.00;91.30;;;;;;4955939;28;19930;-83
2022/09/04 00:07:05;;;;;;;;;;;16.00;91.20;;;;;;4962272;28;19936;-85
2022/09/04 00:09:33;;;;;;;;;;;15.90;91.60;;;;;;4964041;28;20333;-86
2022/09/04 00:12:04;;;;;;;;;;;15.90;91.50;;;;;;4975476;28;20476;-84
2022/09/04 00:14:39;;;;;;;;;;;15.80;91.30;;;;;;4963472;28;19929;-84
2022/09/04 00:17:09;;;;;;;;;;;15.80;92.40;;;;;;4972087;28;19930;-86
2022/09/04 00:19:46;;;;;;;;;;;15.80;92.90;;;;;;4969982;28;20331;-90
2022/09/04 00:22:18;;;;;;;;;;;15.70;93.20;;;;;;4961223;28;19925;-89
2022/09/04 00:24:50;;;;;;;;;;;15.70;93.10;;;;;;4959058;28;19941;-87
2022/09/04 00:27:16;;;;;;;;;;;15.70;93.50;;;;;;4967583;28;19936;-91
2022/09/04 00:30:01;;;;;;;;;;;15.60;93.60;;;;;;4972479;28;19921;-87
2022/09/04 00:32:27;;;;;;;;;;;15.60;94.00;;;;;;4973196;28;20350;-87
2022/09/04 00:34:58;;;;;;;;;;;15.60;94.10;;;;;;4957255;28;19926;-86
2022/09/04 00:37:29;;;;;;;;;;;15.60;94.10;;;;;;4972578;28;20009;-85
2022/09/04 00:40:13;;;;;;;;;;;15.50;94.10;;;;;;5000053;28;19940;-90
2022/09/04 00:43:00;;;;;;;;;;;15.50;94.60;;;;;;4958215;28;20001;-90
2022/09/04 00:45:26;;;;;;;;;;;15.50;94.90;;;;;;4956239;28;20184;-87
2022/09/04 00:48:12;;;;;;;;;;;15.40;95.20;;;;;;4995834;28;20036;-86
2022/09/04 00:50:51;;;;;;;;;;;15.40;95.00;;;;;;4942471;28;20289;-89
2022/09/04 00:53:33;;;;;;;;;;;15.30;96.30;;;;;;4955493;28;19995;-87
2022/09/04 00:56:11;;;;;;;;;;;15.30;96.50;;;;;;4972486;28;19930;-87
2022/09/04 00:58:48;;;;;;;;;;;15.30;96.50;;;;;;4954044;28;19952;-86
2022/09/04 01:01:18;;;;;;;;;;;15.20;97.10;;;;;;4962658;28;19926;-83
2022/09/04 01:03:54;;;;;;;;;;;15.20;97.20;;;;;;4959797;28;19925;-94
2022/09/04 01:06:20;;;;;;;;;;;15.20;97.30;;;;;;4967930;28;20024;-86
2022/09/04 01:09:00;;;;;;;;;;;15.10;97.80;;;;;;4949692;28;20532;-88
2022/09/04 01:11:41;;;;;;;;;;;15.10;97.20;;;;;;4955854;28;19926;-88
2022/09/04 01:14:12;;;;;;;;;;;15.10;97.90;;;;;;4966375;28;20529;-87
2022/09/04 01:16:40;;;;;;;;;;;15.00;98.50;;;;;;4956527;28;19925;-85
2022/09/04 01:19:06;;;;;;;;;;;15.00;99.00;;;;;;4952449;28;20003;-89
2022/09/04 01:21:35;;;;;;;;;;;15.00;99.30;;;;;;5000420;28;20004;-90
2022/09/04 01:24:20;;;;;;;;;;;14.90;99.90;;;;;;4963108;28;19980;-84
2022/09/04 01:26:52;;;;;;;;;;;14.90;99.40;;;;;;4969444;28;19929;-85
2022/09/04 01:29:22;;;;;;;;;;;14.90;99.80;;;;;;4954522;28;19933;-88
2022/09/04 01:32:05;;;;;;;;;;;14.80;99.90;;;;;;4954339;28;19940;-83
2022/09/04 01:34:32;;;;;;;;;;;14.80;99.90;;;;;;4966949;28;19933;-86
2022/09/04 01:37:16;;;;;;;;;;;14.70;99.90;;;;;;4971588;28;19925;-92
2022/09/04 01:39:45;;;;;;;;;;;14.80;99.90;;;;;;4969528;28;19976;-86
2022/09/04 01:42:22;;;;;;;;;;;14.70;99.90;;;;;;4961822;28;20286;-85
2022/09/04 01:44:48;;;;;;;;;;;14.70;99.90;;;;;;4972131;28;20016;-86
2022/09/04 01:47:15;;;;;;;;;;;14.70;99.90;;;;;;4987921;28;20012;-83
2022/09/04 01:49:50;;;;;;;;;;;14.60;99.90;;;;;;4967949;28;19936;-84
2022/09/04 01:52:36;;;;;;;;;;;14.60;99.90;;;;;;4972481;28;19929;-89
2022/09/04 01:55:22;;;;;;;;;;;14.60;99.90;;;;;;4970782;28;19925;-88
2022/09/04 01:58:07;;;;;;;;;;;14.50;99.90;;;;;;4983628;28;20496;-85
2022/09/04 02:00:39;;;;;;;;;;;14.50;99.90;;;;;;4988401;28;19929;-86
2022/09/04 02:03:05;;;;;;;;;;;14.50;99.90;;;;;;4973573;28;20305;-89
2022/09/04 02:11:34;;;;;;;;;;;14.40;99.90;;;;;;4967768;28;20020;-83
2022/09/04 02:14:13;;;;;;;;;;;14.50;99.90;;;;;;4969956;28;19926;-84
2022/09/04 02:16:41;;;;;;;;;;;14.50;99.90;;;;;;4970735;28;19992;-84
2022/09/04 02:19:47;;;;;;;;;;;14.40;99.90;;;;;;4985108;28;19934;-84
2022/09/04 02:22:13;;;;;;;;;;;14.40;99.90;;;;;;4927270;29;20101;-82
2022/09/04 02:24:39;;;;;;;;;;;14.40;99.90;;;;;;4927826;29;19941;-83
2022/09/04 02:27:09;;;;;;;;;;;14.30;99.90;;;;;;4950573;28;19934;-85
2022/09/04 02:29:48;;;;;;;;;;;14.20;99.90;;;;;;4986168;28;20242;-84
2022/09/04 02:32:24;;;;;;;;;;;14.20;99.90;;;;;;4987966;28;19980;-84
2022/09/04 02:35:24;;;;;;;;;;;14.10;99.90;;;;;;4982424;28;20377;-87
2022/09/04 02:38:03;;;;;;;;;;;14.00;99.90;;;;;;4952099;28;19933;-85
2022/09/04 02:40:47;;;;;;;;;;;14.00;99.90;;;;;;4985025;28;19979;-84
2022/09/04 02:43:31;;;;;;;;;;;13.90;99.90;;;;;;4994353;28;19926;-83
2022/09/04 02:46:01;;;;;;;;;;;13.90;99.90;;;;;;4954214;28;20590;-91
2022/09/04 02:48:36;;;;;;;;;;;13.90;99.90;;;;;;4967514;28;19993;-84
2022/09/04 02:51:17;;;;;;;;;;;13.80;99.90;;;;;;4975083;28;20017;-82
2022/09/04 02:53:50;;;;;;;;;;;13.80;99.90;;;;;;4968934;28;19994;-86
2022/09/04 02:56:26;;;;;;;;;;;13.70;99.90;;;;;;4961685;28;19925;-82
2022/09/04 02:59:11;;;;;;;;;;;13.80;99.90;;;;;;4955147;28;19926;-80
2022/09/04 03:01:58;;;;;;;;;;;13.70;99.90;;;;;;4990589;28;20008;-86
2022/09/04 03:04:48;;;;;;;;;;;13.70;99.90;;;;;;4999433;28;20005;-87
2022/09/04 03:07:29;;;;;;;;;;;13.70;99.90;;;;;;4990790;28;19926;-85
2022/09/04 03:10:13;;;;;;;;;;;13.70;99.90;;;;;;4969814;28;19934;-86
2022/09/04 03:12:55;;;;;;;;;;;13.60;99.90;;;;;;4973102;28;20078;-84
2022/09/04 03:15:42;;;;;;;;;;;13.70;99.90;;;;;;4990132;28;19925;-86
2022/09/04 03:18:19;;;;;;;;;;;13.60;99.90;;;;;;4986163;28;19934;-84
2022/09/04 03:20:53;;;;;;;;;;;13.60;99.90;;;;;;4971142;28;20308;-85
2022/09/04 03:23:35;;;;;;;;;;;13.60;99.90;;;;;;4973504;28;20002;-84
2022/09/04 03:26:09;;;;;;;;;;;13.50;99.90;;;;;;4979894;28;19996;-83
2022/09/04 03:28:48;;;;;;;;;;;13.50;99.90;;;;;;4987989;28;19929;-82
2022/09/04 03:31:23;;;;;;;;;;;13.50;99.90;;;;;;4969648;28;19992;-86
2022/09/04 03:33:59;;;;;;;;;;;13.50;99.90;;;;;;4981622;28;19960;-85
2022/09/04 03:36:32;;;;;;;;;;;13.40;99.90;;;;;;4988235;28;19937;-83
2022/09/04 03:39:24;;;;;;;;;;;13.40;99.90;;;;;;4977719;28;19944;-87
2022/09/04 03:41:58;;;;;;;;;;;13.40;99.90;;;;;;4963220;28;19930;-88
2022/09/04 03:44:42;;;;;;;;;;;13.40;99.90;;;;;;4987370;28;19937;-82
2022/09/04 03:47:11;;;;;;;;;;;13.30;99.90;;;;;;4986902;28;19937;-87
2022/09/04 03:49:46;;;;;;;;;;;13.30;99.90;;;;;;4973007;28;20021;-84
2022/09/04 03:52:12;;;;;;;;;;;13.30;99.90;;;;;;4967637;28;19933;-86
2022/09/04 03:54:37;;;;;;;;;;;13.30;99.90;;;;;;4973371;28;19926;-82
2022/09/04 03:57:22;;;;;;;;;;;13.30;99.90;;;;;;4972691;28;19926;-84
2022/09/04 03:59:48;;;;;;;;;;;13.20;99.90;;;;;;4986762;28;19926;-83
2022/09/04 04:02:43;;;;;;;;;;;13.20;99.90;;;;;;4971520;28;19925;-88
2022/09/04 04:05:23;;;;;;;;;;;13.30;99.90;;;;;;4979103;28;19932;-85
2022/09/04 04:08:08;;;;;;;;;;;13.20;99.90;;;;;;4986892;28;19929;-83
2022/09/04 04:10:38;;;;;;;;;;;13.20;99.90;;;;;;4970675;28;20001;-84
2022/09/04 04:13:09;;;;;;;;;;;13.20;99.90;;;;;;4964929;28;19926;-83
2022/09/04 04:15:44;;;;;;;;;;;13.20;99.90;;;;;;4967329;28;19937;-81
2022/09/04 04:18:22;;;;;;;;;;;13.20;99.90;;;;;;4969210;28;19937;-83
2022/09/04 04:20:55;;;;;;;;;;;13.10;99.90;;;;;;4980104;28;19926;-81
2022/09/04 04:23:40;;;;;;;;;;;13.10;99.90;;;;;;4969606;28;19926;-83
2022/09/04 04:26:20;;;;;;;;;;;13.00;99.90;;;;;;4981654;28;19930;-83
2022/09/04 04:28:58;;;;;;;;;;;13.00;99.90;;;;;;4985913;28;19925;-81
2022/09/04 04:31:43;;;;;;;;;;;13.00;99.90;;;;;;4969926;28;19929;-82
2022/09/04 04:34:20;;;;;;;;;;;13.00;99.90;;;;;;4982784;28;20020;-83
2022/09/04 04:36:48;;;;;;;;;;;12.90;99.90;;;;;;4985963;28;20680;-84
2022/09/04 04:39:34;;;;;;;;;;;12.90;99.90;;;;;;4986683;28;19930;-82
2022/09/04 04:42:03;;;;;;;;;;;13.00;99.90;;;;;;4962757;28;19926;-82
2022/09/04 04:47:50;;;;;;;;;;;13.00;99.90;;;;;;4963145;28;20052;-83
2022/09/04 04:50:36;;;;;;;;;;;13.00;99.90;;;;;;4967637;28;20033;-84
2022/09/04 04:53:08;;;;;;;;;;;13.00;99.90;;;;;;4977831;28;19936;-81
2022/09/04 04:55:46;;;;;;;;;;;13.00;99.90;;;;;;4985496;28;19937;-82
2022/09/04 04:58:17;;;;;;;;;;;13.00;99.90;;;;;;4981587;28;20467;-83
2022/09/04 05:00:49;;;;;;;;;;;13.00;99.90;;;;;;4969006;28;20428;-85
2022/09/04 05:03:15;;;;;;;;;;;13.00;99.90;;;;;;4969384;28;19930;-83
2022/09/04 05:05:42;;;;;;;;;;;13.00;99.90;;;;;;4961582;28;19929;-84
2022/09/04 05:08:08;;;;;;;;;;;13.00;99.90;;;;;;4970275;28;19926;-83
2022/09/04 05:10:39;;;;;;;;;;;13.00;99.90;;;;;;4970266;28;19930;-82
2022/09/04 05:13:20;;;;;;;;;;;13.00;99.90;;;;;;4950349;28;19972;-88
2022/09/04 05:15:46;;;;;;;;;;;13.00;99.90;;;;;;4962152;28;19926;-85
2022/09/04 05:18:27;;;;;;;;;;;13.00;99.90;;;;;;4951627;28;20017;-85
2022/09/04 05:21:16;;;;;;;;;;;13.00;99.90;;;;;;4950595;28;19934;-87
2022/09/04 05:23:56;;;;;;;;;;;13.00;99.90;;;;;;4945285;28;19926;-89
2022/09/04 05:26:22;;;;;;;;;;;13.00;99.90;;;;;;4950765;28;19930;-86
2022/09/04 05:28:52;;;;;;;;;;;13.00;99.90;;;;;;4949722;28;19933;-85
2022/09/04 05:31:21;;;;;;;;;;;13.00;99.90;;;;;;4965614;28;20317;-85
2022/09/04 05:33:49;;;;;;;;;;;13.00;99.90;;;;;;4949350;28;20285;-85
2022/09/04 05:36:20;;;;;;;;;;;13.00;99.90;;;;;;4950801;28;20731;-81
2022/09/04 05:38:46;;;;;;;;;;;12.90;99.90;;;;;;4951435;28;19933;-80
2022/09/04 05:41:22;;;;;;;;;;;13.00;99.90;;;;;;4950354;28;19930;-82
2022/09/04 05:43:48;;;;;;;;;;;12.90;99.90;;;;;;4950288;28;19926;-84
2022/09/04 05:46:13;;;;;;;;;;;13.00;99.90;;;;;;4965525;28;19926;-85
2022/09/04 05:48:58;;;;;;;;;;;13.10;99.90;;;;;;4966957;28;19926;-84
2022/09/04 05:51:39;;;;;;;;;;;13.10;99.90;;;;;;4949515;28;20524;-81
2022/09/04 05:54:12;;;;;;;;;;;13.10;99.90;;;;;;4966271;28;20060;-84
2022/09/04 05:56:38;;;;;;;;;;;13.10;99.90;;;;;;4947264;28;19926;-86
2022/09/04 05:59:16;;;;;;;;;;;13.20;99.90;;;;;;4961759;28;19937;-86
2022/09/04 06:01:58;;;;;;;;;;;13.20;99.90;;;;;;4947317;28;19941;-83
2022/09/04 06:04:47;;;;;;;;;;;13.20;99.90;;;;;;4964235;28;19926;-80
2022/09/04 06:07:16;;;;;;;;;;;13.30;99.90;;;;;;4947565;28;20292;-80
2022/09/04 06:09:47;;;;;;;;;;;13.40;99.90;;;;;;4968603;28;19984;-84
2022/09/04 06:12:23;;;;;;;;;;;13.50;99.90;;;;;;4981392;28;19926;-88
2022/09/04 06:15:07;;;;;;;;;;;13.50;99.90;;;;;;4963706;28;19921;-84
2022/09/04 06:18:06;;;;;;;;;;;13.60;99.90;;;;;;4997328;28;19921;-87
2022/09/04 06:23:42;;;;;;;;;;;13.60;99.90;;;;;;4997230;28;19941;-87
2022/09/04 06:26:25;;;;;;;;;;;13.70;99.90;;;;;;4981277;28;20563;-86
2022/09/04 06:29:04;;;;;;;;;;;13.80;99.90;;;;;;4958553;28;20262;-85
2022/09/04 06:31:43;;;;;;;;;;;13.80;99.90;;;;;;4977369;28;19938;-83
2022/09/04 06:34:22;;;;;;;;;;;13.90;99.90;;;;;;4983718;28;19973;-87
2022/09/04 06:37:03;;;;;;;;;;;14.00;99.90;;;;;;4969060;28;20373;-83
2022/09/04 06:39:29;;;;;;;;;;;14.10;99.90;;;;;;4974066;28;19922;-90
2022/09/04 06:42:10;;;;;;;;;;;14.30;99.90;;;;;;4969704;28;19940;-87
2022/09/04 06:44:39;;;;;;;;;;;14.40;99.90;;;;;;4970558;28;20065;-86
2022/09/04 06:47:11;;;;;;;;;;;14.50;99.90;;;;;;4969194;28;19929;-88
2022/09/04 06:49:57;;;;;;;;;;;14.60;99.90;;;;;;4969407;28;20709;-84
2022/09/04 06:52:26;;;;;;;;;;;15.00;99.90;;;;;;4971652;28;20557;-86
2022/09/04 06:54:58;;;;;;;;;;;14.70;99.90;;;;;;4981339;28;20602;-86
2022/09/04 06:57:47;;;;;;;;;;;14.80;99.90;;;;;;4985238;28;20310;-89
2022/09/04 07:00:16;;;;;;;;;;;14.90;99.90;;;;;;4963235;28;19926;-83
2022/09/04 07:02:51;;;;;;;;;;;15.10;99.90;;;;;;4976010;28;19944;-87
2022/09/04 07:05:37;;;;;;;;;;;15.10;99.90;;;;;;4966888;28;19934;-88
2022/09/04 07:08:03;;;;;;;;;;;15.50;99.90;;;;;;4969009;28;19973;-88
2022/09/04 07:10:33;;;;;;;;;;;15.60;99.90;;;;;;4967438;28;19941;-88
2022/09/04 07:13:12;;;;;;;;;;;15.90;99.90;;;;;;4963989;28;19930;-87
2022/09/04 07:15:51;;;;;;;;;;;16.50;99.90;;;;;;4984149;28;19925;-83
2022/09/04 07:18:27;;;;;;;;;;;17.20;99.90;;;;;;4969086;28;20389;-87
2022/09/04 07:20:55;;;;;;;;;;;17.90;99.90;;;;;;4971094;28;20476;-84
2022/09/04 07:23:22;;;;;;;;;;;17.80;99.90;;;;;;4987604;28;19925;-85
2022/09/04 07:25:59;;;;;;;;;;;17.80;99.90;;;;;;4961907;28;19936;-82
2022/09/04 07:28:32;;;;;;;;;;;17.60;99.90;;;;;;4986136;28;20380;-83
2022/09/04 07:31:16;;;;;;;;;;;17.70;99.90;;;;;;4964525;28;19926;-87
2022/09/04 07:33:44;;;;;;;;;;;18.00;99.90;;;;;;4986987;28;20368;-86
2022/09/04 07:36:17;;;;;;;;;;;18.50;99.90;;;;;;4973179;28;19925;-89
2022/09/04 07:39:00;;;;;;;;;;;20.60;99.90;;;;;;4972487;28;19925;-85
2022/09/04 07:41:31;;;;;;;;;;;20.70;99.90;;;;;;4972193;28;19925;-89
2022/09/04 07:44:02;;;;;;;;;;;21.60;99.90;;;;;;4965497;28;19926;-83
2022/09/04 07:46:39;;;;;;;;;;;22.00;96.40;;;;;;4971753;28;20535;-86
2022/09/04 07:49:11;;;;;;;;;;;22.20;94.20;;;;;;4960888;28;20011;-84
2022/09/04 07:51:52;;;;;;;;;;;22.50;94.00;;;;;;4989517;28;20011;-89
2022/09/04 07:54:26;;;;;;;;;;;22.70;92.20;;;;;;4970534;28;19945;-88
2022/09/04 07:57:27;;;;;;;;;;;22.90;91.10;;;;;;4967071;28;20020;-89
2022/09/04 08:00:02;;;;;;;;;;;23.10;91.90;;;;;;4900736;29;19926;-89
2022/09/04 08:02:57;;;;;;;;;;;23.00;89.80;;;;;;4971130;28;19976;-89
2022/09/04 08:05:25;;;;;;;;;;;23.00;90.50;;;;;;4947028;28;19930;-89
2022/09/04 08:08:02;;;;;;;;;;;23.10;91.00;;;;;;4957481;28;19944;-83
2022/09/04 08:10:30;;;;;;;;;;;;;;;;;;4963197;28;20033;-88
2022/09/04 08:13:09;;;;;;;;;;;23.90;87.60;;;;;;4976005;28;19930;-80
2022/09/04 08:15:35;;;;;;;;;;;24.30;86.30;;;;;;4950222;28;19934;-84
2022/09/04 08:18:20;;;;;;;;;;;25.00;84.90;;;;;;4962125;28;19950;-81
2022/09/04 08:20:51;;;;;;;;;;;25.40;84.30;;;;;;4963668;28;20068;-85
2022/09/04 08:23:29;;;;;;;;;;;25.60;82.40;;;;;;4961693;28;19926;-86
2022/09/04 08:26:10;;;;;;;;;;;25.50;80.20;;;;;;4948808;28;19930;-87
2022/09/04 08:28:36;;;;;;;;;;;25.10;78.50;;;;;;4954605;28;19937;-85
2022/09/04 08:31:07;;;;;;;;;;;24.90;79.00;;;;;;4963307;28;20012;-87
2022/09/04 08:34:03;;;;;;;;;;;24.70;78.90;;;;;;4962349;28;19934;-88
2022/09/04 08:36:32;;;;;;;;;;;24.70;83.90;;;;;;4903300;28;19927;-84
2022/09/04 08:39:05;;;;;;;;;;;24.60;80.50;;;;;;4965252;28;19934;-83
2022/09/04 08:41:46;;;;;;;;;;;24.50;79.90;;;;;;4950392;28;19957;-91
2022/09/04 08:44:16;;;;;;;;;;;24.30;81.80;;;;;;4965391;28;19992;-83
2022/09/04 08:47:02;;;;;;;;;;;24.20;80.90;;;;;;4963928;28;19962;-87
2022/09/04 08:49:43;;;;;;;;;;;24.10;81.80;;;;;;4966346;28;20025;-83
2022/09/04 08:52:28;;;;;;;;;;;23.80;81.40;;;;;;4949590;28;20017;-89
2022/09/04 08:55:04;;;;;;;;;;;23.50;82.50;;;;;;4950468;28;19972;-83
2022/09/04 08:57:51;;;;;;;;;;;23.30;83.10;;;;;;4963098;28;19930;-82
2022/09/04 09:00:20;;;;;;;;;;;23.30;85.50;;;;;;4951631;28;19961;-89
2022/09/04 09:02:52;;;;;;;;;;;23.20;85.20;;;;;;4945400;28;19942;-87
2022/09/04 09:05:37;;;;;;;;;;;23.00;83.40;;;;;;4982984;28;19933;-87
2022/09/04 09:08:22;;;;;;;;;;;23.00;83.80;;;;;;4962446;28;19926;-85
2022/09/04 09:11:00;;;;;;;;;;;23.10;84.20;;;;;;4972855;28;19933;-86
2022/09/04 09:13:45;;;;;;;;;;;23.20;85.80;;;;;;4968877;28;19937;-82
2022/09/04 09:16:30;;;;;;;;;;;23.40;85.70;;;;;;4973157;28;19925;-86
2022/09/04 09:19:21;;;;;;;;;;;23.50;83.90;;;;;;4985142;28;19934;-84
2022/09/04 09:21:59;;;;;;;;;;;23.60;84.30;;;;;;4976302;28;19934;-85
2022/09/04 09:24:29;;;;;;;;;;;23.60;84.10;;;;;;4969162;28;19929;-86
2022/09/04 09:26:56;;;;;;;;;;;23.70;83.70;;;;;;4963606;28;20028;-88
2022/09/04 09:29:41;;;;;;;;;;;23.70;83.10;;;;;;4969412;28;19996;-86
2022/09/04 09:32:16;;;;;;;;;;;23.70;84.00;;;;;;4967918;28;19987;-87
2022/09/04 09:34:44;;;;;;;;;;;23.70;83.20;;;;;;4971614;28;20294;-83
2022/09/04 09:37:36;;;;;;;;;;;23.90;83.00;;;;;;4971135;28;20437;-86
2022/09/04 09:40:02;;;;;;;;;;;24.00;82.60;;;;;;4977946;28;19933;-82
2022/09/04 09:42:47;;;;;;;;;;;24.10;83.00;;;;;;4965177;28;19930;-89
2022/09/04 09:45:16;;;;;;;;;;;24.30;82.70;;;;;;4984082;28;19936;-85
2022/09/04 09:48:02;;;;;;;;;;;24.40;81.30;;;;;;4963430;28;19926;-85
2022/09/04 09:50:28;;;;;;;;;;;24.40;80.70;;;;;;4983943;28;20409;-87
2022/09/04 09:52:54;;;;;;;;;;;24.50;82.00;;;;;;4965406;28;19929;-84
2022/09/04 09:55:31;;;;;;;;;;;24.60;80.20;;;;;;4967728;28;19925;-88
2022/09/04 09:58:17;;;;;;;;;;;24.50;78.70;;;;;;4977477;28;19925;-85
2022/09/04 10:00:45;;;;;;;;;;;24.50;78.80;;;;;;4985598;28;19934;-84
2022/09/04 10:03:12;;;;;;;;;;;24.50;79.30;;;;;;4986361;28;20058;-86
2022/09/04 10:05:48;;;;;;;;;;;24.60;79.20;;;;;;4936338;28;19937;-83
2022/09/04 10:08:20;;;;;;;;;;;24.60;78.60;;;;;;4979129;28;20006;-82
2022/09/04 10:10:52;;;;;;;;;;;24.60;78.40;;;;;;4976396;28;19938;-85
2022/09/04 10:13:35;;;;;;;;;;;24.70;78.20;;;;;;4967946;28;19933;-83
2022/09/04 10:16:19;;;;;;;;;;;24.70;77.50;;;;;;4962201;28;19926;-82
2022/09/04 10:18:51;;;;;;;;;;;24.70;77.20;;;;;;4984906;28;19984;-80
2022/09/04 10:21:22;;;;;;;;;;;24.60;75.80;;;;;;4965489;28;20541;-82
2022/09/04 10:23:55;;;;;;;;;;;24.80;77.50;;;;;;4962343;28;20281;-84
2022/09/04 10:26:39;;;;;;;;;;;24.90;76.20;;;;;;4983964;28;19933;-80
2022/09/04 10:29:28;;;;;;;;;;;25.10;76.50;;;;;;4978417;28;19987;-85
2022/09/04 10:32:00;;;;;;;;;;;25.20;77.20;;;;;;4972564;28;20274;-84
2022/09/04 10:34:45;;;;;;;;;;;25.40;76.30;;;;;;4969333;28;19991;-84
2022/09/04 10:37:29;;;;;;;;;;;25.50;76.00;;;;;;4982670;28;19967;-83
2022/09/04 10:42:50;;;;;;;;;;;25.60;74.90;;;;;;5000305;28;20423;-89
2022/09/04 10:45:16;;;;;;;;;;;25.70;75.60;;;;;;4985158;28;19981;-86
2022/09/04 10:47:50;;;;;;;;;;;25.80;75.60;;;;;;4977360;28;19926;-82
2022/09/04 10:50:21;;;;;;;;;;;25.80;73.40;;;;;;4969386;28;19937;-82
2022/09/04 10:53:00;;;;;;;;;;;25.60;73.70;;;;;;4976582;28;20003;-81
2022/09/04 10:55:35;;;;;;;;;;;25.60;74.40;;;;;;4968696;28;19937;-81
2022/09/04 10:58:19;;;;;;;;;;;25.50;74.20;;;;;;4977834;28;19930;-82
2022/09/04 11:00:55;;;;;;;;;;;25.60;74.20;;;;;;4969453;28;20020;-84
2022/09/04 11:03:27;;;;;;;;;;;25.70;74.50;;;;;;4985501;28;19926;-86
2022/09/04 11:06:07;;;;;;;;;;;25.70;74.00;;;;;;4961427;28;19937;-79
2022/09/04 11:08:48;;;;;;;;;;;25.50;73.90;;;;;;4985127;28;20085;-86
2022/09/04 11:11:39;;;;;;;;;;;25.70;72.80;;;;;;4977127;28;19961;-81
2022/09/04 11:14:17;;;;;;;;;;;25.60;73.00;;;;;;4979111;28;20031;-86
2022/09/04 11:16:51;;;;;;;;;;;25.60;73.20;;;;;;4985237;28;19926;-82
2022/09/04 11:19:36;;;;;;;;;;;25.60;73.10;;;;;;4982530;28;19926;-82
2022/09/04 11:22:18;;;;;;;;;;;25.60;72.90;;;;;;4984028;28;19947;-86
2022/09/04 11:24:44;;;;;;;;;;;25.80;73.30;;;;;;4972074;28;19940;-84
2022/09/04 11:27:29;;;;;;;;;;;26.00;73.10;;;;;;4988248;28;19926;-86
2022/09/04 11:29:55;;;;;;;;;;;26.20;72.60;;;;;;4989242;28;19972;-80
2022/09/04 11:32:30;;;;;;;;;;;26.30;73.30;;;;;;4986180;28;19965;-86
2022/09/04 11:35:12;;;;;;;;;;;26.50;73.00;;;;;;4982308;28;19926;-88
2022/09/04 11:37:44;;;;;;;;;;;26.70;71.80;;;;;;4969953;28;19926;-84
2022/09/04 11:40:30;;;;;;;;;;;26.90;72.10;;;;;;4972893;28;20004;-85
2022/09/04 11:43:04;;;;;;;;;;;26.80;71.10;;;;;;4970796;28;19926;-85
2022/09/04 11:45:48;;;;;;;;;;;27.00;72.30;;;;;;4965997;28;19926;-89
2022/09/04 11:48:14;;;;;;;;;;;26.90;71.00;;;;;;4984533;28;19937;-80
2022/09/04 11:51:00;;;;;;;;;;;26.80;70.30;;;;;;4979944;28;19926;-82
2022/09/04 11:53:35;;;;;;;;;;;26.70;71.50;;;;;;4987531;28;19930;-84
2022/09/04 11:56:17;;;;;;;;;;;26.80;71.10;;;;;;4983398;28;20029;-85
2022/09/04 11:58:57;;;;;;;;;;;26.60;69.40;;;;;;4990966;28;19933;-82
2022/09/04 12:01:32;;;;;;;;;;;26.60;71.40;;;;;;4988269;28;19949;-80
2022/09/04 12:04:03;;;;;;;;;;;26.60;71.30;;;;;;4966613;28;19930;-84
2022/09/04 12:06:52;;;;;;;;;;;26.60;71.30;;;;;;4988755;28;20517;-85
2022/09/04 12:09:18;;;;;;;;;;;26.60;71.50;;;;;;4940903;28;19940;-91
2022/09/04 12:11:44;;;;;;;;;;;26.50;71.30;;;;;;4980916;28;20475;-85
2022/09/04 12:14:13;;;;;;;;;;;26.50;71.50;;;;;;4987210;28;20385;-86
2022/09/04 12:16:51;;;;;;;;;;;26.50;71.30;;;;;;4987773;28;20013;-83
2022/09/04 12:19:43;;;;;;;;;;;26.50;71.10;;;;;;4988158;28;20388;-87
2022/09/04 12:22:21;;;;;;;;;;;26.70;71.60;;;;;;4985928;28;19948;-86
2022/09/04 12:25:03;;;;;;;;;;;26.80;71.70;;;;;;4984796;28;19926;-86
2022/09/04 12:27:41;;;;;;;;;;;26.70;70.90;;;;;;4971076;28;19969;-82
2022/09/04 12:30:19;;;;;;;;;;;26.50;70.20;;;;;;4966284;28;19980;-84
2022/09/04 12:33:03;;;;;;;;;;;26.50;70.40;;;;;;4972320;28;20086;-84
2022/09/04 12:35:29;;;;;;;;;;;26.40;71.00;;;;;;4987102;28;19956;-83
2022/09/04 12:38:14;;;;;;;;;;;26.60;71.70;;;;;;4982163;28;19926;-87
2022/09/04 12:40:52;;;;;;;;;;;26.70;70.70;;;;;;4969537;28;20364;-87
2022/09/04 12:43:23;;;;;;;;;;;26.40;69.60;;;;;;5006324;28;20431;-84
2022/09/04 12:46:02;;;;;;;;;;;26.40;70.50;;;;;;4977686;28;19934;-83
2022/09/04 12:48:31;;;;;;;;;;;26.30;70.00;;;;;;4972204;28;19932;-88
2022/09/04 12:51:08;;;;;;;;;;;26.30;70.80;;;;;;4966071;28;19934;-88
2022/09/04 12:53:44;;;;;;;;;;;25.90;70.40;;;;;;4964782;28;19981;-86
2022/09/04 12:56:24;;;;;;;;;;;26.20;71.10;;;;;;4965680;28;19930;-84
2022/09/04 12:58:53;;;;;;;;;;;26.20;70.90;;;;;;4986181;28;20548;-88
2022/09/04 13:01:30;;;;;;;;;;;26.20;70.90;;;;;;4970876;28;20611;-87
2022/09/04 13:03:58;;;;;;;;;;;26.30;71.00;;;;;;4966000;28;19937;-82
2022/09/04 13:06:39;;;;;;;;;;;26.30;70.70;;;;;;4985128;28;20017;-87
2022/09/04 13:09:17;;;;;;;;;;;26.30;69.70;;;;;;4971351;28;19937;-87
2022/09/04 13:11:50;;;;;;;;;;;26.30;70.00;;;;;;4933321;29;19941;-85
2022/09/04 13:14:27;;;;;;;;;;;26.30;71.00;;;;;;4931105;28;20000;-84
2022/09/04 13:17:11;;;;;;;;;;;26.30;69.40;;;;;;4951959;28;19981;-91
2022/09/04 13:19:45;;;;;;;;;;;26.30;69.90;;;;;;4969036;28;20405;-80
2022/09/04 13:22:23;;;;;;;;;;;26.30;69.40;;;;;;4946453;28;20270;-81
2022/09/04 13:24:50;;;;;;;;;;;26.20;69.20;;;;;;4967183;28;19953;-82
2022/09/04 13:27:25;;;;;;;;;;;26.20;70.10;;;;;;4967121;28;20400;-80
2022/09/04 13:29:57;;;;;;;;;;;26.10;69.40;;;;;;4967567;28;19949;-79
2022/09/04 13:32:38;;;;;;;;;;;26.10;69.50;;;;;;4964426;28;19970;-79
2022/09/04 13:35:37;;;;;;;;;;;26.10;70.10;;;;;;4950779;28;19930;-80
2022/09/04 13:38:09;;;;;;;;;;;26.10;70.40;;;;;;4952482;28;19926;-78
2022/09/04 13:40:53;;;;;;;;;;;26.10;70.50;;;;;;4967452;28;19941;-81
2022/09/04 13:43:39;;;;;;;;;;;26.10;70.40;;;;;;4949490;28;20164;-81
2022/09/04 13:46:13;;;;;;;;;;;26.10;70.70;;;;;;4949057;28;19930;-79
2022/09/04 13:48:44;;;;;;;;;;;26.10;70.30;;;;;;4947963;28;20018;-81
2022/09/04 13:51:16;;;;;;;;;;;26.00;69.40;;;;;;4963807;28;19953;-83
2022/09/04 13:53:48;;;;;;;;;;;26.00;70.10;;;;;;4950054;28;19926;-79
2022/09/04 13:56:21;;;;;;;;;;;26.00;71.20;;;;;;4965873;28;19980;-80
2022/09/04 13:58:50;;;;;;;;;;;25.90;70.10;;;;;;4962686;28;19933;-78
2022/09/04 14:01:22;;;;;;;;;;;25.90;70.00;;;;;;4966339;28;20266;-80
2022/09/04 14:03:54;;;;;;;;;;;25.90;70.60;;;;;;4966115;28;20408;-85
2022/09/04 14:06:21;;;;;;;;;;;25.80;70.20;;;;;;4952989;28;20410;-79
2022/09/04 14:08:48;;;;;;;;;;;25.80;70.60;;;;;;4950683;28;19933;-84
2022/09/04 14:11:20;;;;;;;;;;;25.80;70.20;;;;;;4982051;28;19926;-84
2022/09/04 14:14:09;;;;;;;;;;;25.80;70.40;;;;;;4961716;28;19932;-81
2022/09/04 14:16:40;;;;;;;;;;;25.70;70.50;;;;;;4969904;28;20377;-81
2022/09/04 14:19:23;;;;;;;;;;;25.70;70.90;;;;;;4965461;28;19934;-81
2022/09/04 14:21:55;;;;;;;;;;;25.70;70.50;;;;;;4969078;28;20381;-80
2022/09/04 14:24:31;;;;;;;;;;;25.70;70.50;;;;;;4968843;28;20393;-81
2022/09/04 14:27:17;;;;;;;;;;;25.70;70.50;;;;;;4979125;28;19973;-80
2022/09/04 14:30:02;;;;;;;;;;;25.70;70.50;;;;;;4968924;28;19925;-81
2022/09/04 14:32:39;;;;;;;;;;;25.70;71.20;;;;;;4966363;28;19930;-81
2022/09/04 14:35:11;;;;;;;;;;;25.70;70.60;;;;;;4965594;28;20004;-80
2022/09/04 14:37:52;;;;;;;;;;;25.70;71.20;;;;;;4965917;28;20016;-84
2022/09/04 14:40:20;;;;;;;;;;;25.70;70.90;;;;;;4964075;28;19925;-83
2022/09/04 14:42:57;;;;;;;;;;;25.70;71.10;;;;;;4977231;28;19926;-82
2022/09/04 14:45:29;;;;;;;;;;;25.70;69.90;;;;;;4969087;28;19930;-80
2022/09/04 14:48:02;;;;;;;;;;;25.60;70.40;;;;;;4968145;28;19934;-85
2022/09/04 14:50:42;;;;;;;;;;;25.60;71.10;;;;;;4970319;28;20128;-86
2022/09/04 14:53:08;;;;;;;;;;;25.60;70.80;;;;;;4966683;28;19926;-80
2022/09/04 14:55:42;;;;;;;;;;;25.60;70.90;;;;;;4989214;28;19925;-80
2022/09/04 14:58:20;;;;;;;;;;;25.60;70.90;;;;;;4963018;28;19932;-79
2022/09/04 15:01:08;;;;;;;;;;;25.60;70.50;;;;;;4968410;28;19934;-85
2022/09/04 15:03:46;;;;;;;;;;;25.60;71.20;;;;;;4969892;28;19956;-82
2022/09/04 15:06:17;;;;;;;;;;;25.60;70.80;;;;;;4982846;28;19984;-81
2022/09/04 15:08:44;;;;;;;;;;;25.60;71.10;;;;;;4984305;28;20093;-85
2022/09/04 15:11:25;;;;;;;;;;;25.60;70.70;;;;;;4966149;28;19937;-82
2022/09/04 15:14:16;;;;;;;;;;;25.60;71.50;;;;;;4983289;28;19933;-81
2022/09/04 15:16:48;;;;;;;;;;;25.70;71.10;;;;;;4975491;28;19934;-81
2022/09/04 15:19:34;;;;;;;;;;;25.60;71.10;;;;;;5002236;28;19937;-82
2022/09/04 15:22:12;;;;;;;;;;;25.70;71.10;;;;;;4965134;28;19937;-81
2022/09/04 15:24:47;;;;;;;;;;;25.70;70.50;;;;;;4962418;28;20024;-78
2022/09/04 15:27:40;;;;;;;;;;;25.60;71.60;;;;;;4983308;28;19926;-84